sensor_id;sensor_type;location;lat;lon;timestamp;pressure;altitude;pressure_sealevel;temperature;humidity
43450;BME280;29041;42.266;23.110;2023-07-13T00:00:43;96071.84;;;20.72;86.05
43450;BME280;29041;42.266;23.110;2023-07-13T00:03:30;96076.09;;;20.62;87.17
43450;BME280;29041;42.266;23.110;2023-07-13T00:06:20;96072.59;;;20.69;86.67
43450;BME280;29041;42.266;23.110;2023-07-13T00:09:07;96073.75;;;20.64;86.89
43450;BME280;29041;42.266;23.110;2023-07-13T00:11:57;96074.16;;;20.66;87.14
43450;BME280;29041;42.266;23.110;2023-07-13T00:14:44;96077.28;;;20.68;87.01
43450;BME280;29041;42.266;23.110;2023-07-13T00:17:32;96072.59;;;20.69;86.47
43450;BME280;29041;42.266;23.110;2023-07-13T00:20:20;96060.44;;;20.52;87.41
43450;BME280;29041;42.266;23.110;2023-07-13T00:23:07;96073.75;;;20.64;86.93
43450;BME280;29041;42.266;23.110;2023-07-13T00:25:54;96074.88;;;20.59;87.32
43450;BME280;29041;42.266;23.110;2023-07-13T00:28:44;96062.34;;;20.48;88.12
43450;BME280;29041;42.266;23.110;2023-07-13T00:31:31;96050.56;;;20.33;88.35
43450;BME280;29041;42.266;23.110;2023-07-13T00:34:18;96062.59;;;20.80;88.45
43450;BME280;29041;42.266;23.110;2023-07-13T00:37:06;96056.06;;;20.99;84.68
43450;BME280;29041;42.266;23.110;2023-07-13T00:39:53;96059.94;;;20.98;84.67
43450;BME280;29041;42.266;23.110;2023-07-13T00:42:41;96058.44;;;20.49;86.72
43450;BME280;29041;42.266;23.110;2023-07-13T00:49:08;96061.69;;;20.09;90.68
43450;BME280;29041;42.266;23.110;2023-07-13T00:51:59;96060.22;;;20.23;89.42
43450;BME280;29041;42.266;23.110;2023-07-13T00:54:47;96055.81;;;20.07;90.48
43450;BME280;29041;42.266;23.110;2023-07-13T00:57:34;96065.13;;;20.03;91.42
43450;BME280;29041;42.266;23.110;2023-07-13T01:00:22;96073.34;;;20.10;90.87
43450;BME280;29041;42.266;23.110;2023-07-13T01:03:12;96071.38;;;20.07;91.50
43450;BME280;29041;42.266;23.110;2023-07-13T01:06:01;96061.03;;;20.27;92.46
43450;BME280;29041;42.266;23.110;2023-07-13T01:08:48;96079.91;;;20.02;91.53
43450;BME280;29041;42.266;23.110;2023-07-13T01:11:35;96073.16;;;19.88;92.03
43450;BME280;29041;42.266;23.110;2023-07-13T01:14:22;96072.78;;;19.90;91.46
43450;BME280;29041;42.266;23.110;2023-07-13T01:17:10;96075.00;;;19.80;92.27
43450;BME280;29041;42.266;23.110;2023-07-13T01:19:57;96084.19;;;19.65;93.84
43450;BME280;29041;42.266;23.110;2023-07-13T01:22:47;96076.63;;;19.85;92.36
43450;BME280;29041;42.266;23.110;2023-07-13T01:25:34;96060.97;;;19.78;92.48
43450;BME280;29041;42.266;23.110;2023-07-13T01:28:22;96077.22;;;19.68;93.82
43450;BME280;29041;42.266;23.110;2023-07-13T01:31:12;96079.59;;;19.73;93.40
43450;BME280;29041;42.266;23.110;2023-07-13T01:33:59;96076.38;;;19.63;93.54
43450;BME280;29041;42.266;23.110;2023-07-13T01:36:46;96073.22;;;19.58;94.26
43450;BME280;29041;42.266;23.110;2023-07-13T01:39:35;96072.56;;;19.72;93.46
43450;BME280;29041;42.266;23.110;2023-07-13T01:42:23;96076.63;;;20.30;91.22
43450;BME280;29041;42.266;23.110;2023-07-13T01:45:10;96070.41;;;20.33;89.91
43450;BME280;29041;42.266;23.110;2023-07-13T01:47:58;96078.41;;;19.70;92.78
43450;BME280;29041;42.266;23.110;2023-07-13T01:50:45;96066.53;;;19.52;94.34
43450;BME280;29041;42.266;23.110;2023-07-13T01:53:32;96077.75;;;19.46;94.49
43450;BME280;29041;42.266;23.110;2023-07-13T01:56:21;96070.59;;;19.31;95.26
43450;BME280;29041;42.266;23.110;2023-07-13T01:59:08;96067.06;;;19.27;95.27
43450;BME280;29041;42.266;23.110;2023-07-13T02:01:55;96068.94;;;19.23;95.58
43450;BME280;29041;42.266;23.110;2023-07-13T02:04:42;96075.25;;;19.00;97.63
43450;BME280;29041;42.266;23.110;2023-07-13T02:07:29;96072.50;;;18.96;98.25
43450;BME280;29041;42.266;23.110;2023-07-13T02:10:16;96067.47;;;18.98;98.08
43450;BME280;29041;42.266;23.110;2023-07-13T02:13:06;96075.47;;;18.87;99.68
43450;BME280;29041;42.266;23.110;2023-07-13T02:15:53;96070.03;;;18.87;99.35
43450;BME280;29041;42.266;23.110;2023-07-13T02:18:40;96074.75;;;18.91;98.80
43450;BME280;29041;42.266;23.110;2023-07-13T02:21:28;96069.47;;;18.75;100.00
43450;BME280;29041;42.266;23.110;2023-07-13T02:24:15;96070.94;;;18.68;99.88
43450;BME280;29041;42.266;23.110;2023-07-13T02:27:05;96078.88;;;18.54;100.00
43450;BME280;29041;42.266;23.110;2023-07-13T02:29:54;96089.75;;;18.54;100.00
43450;BME280;29041;42.266;23.110;2023-07-13T02:32:41;96089.06;;;18.34;100.00
43450;BME280;29041;42.266;23.110;2023-07-13T02:35:29;96082.38;;;18.28;100.00
43450;BME280;29041;42.266;23.110;2023-07-13T02:38:16;96097.94;;;18.07;100.00
43450;BME280;29041;42.266;23.110;2023-07-13T02:41:03;96097.72;;;18.16;100.00
43450;BME280;29041;42.266;23.110;2023-07-13T02:43:51;96086.97;;;18.23;100.00
43450;BME280;29041;42.266;23.110;2023-07-13T02:46:39;96095.97;;;18.28;100.00
43450;BME280;29041;42.266;23.110;2023-07-13T02:49:26;96103.28;;;18.23;100.00
43450;BME280;29041;42.266;23.110;2023-07-13T02:52:14;96095.41;;;18.18;100.00
43450;BME280;29041;42.266;23.110;2023-07-13T02:55:01;96095.63;;;18.33;100.00
43450;BME280;29041;42.266;23.110;2023-07-13T02:57:49;96077.84;;;18.12;100.00
43450;BME280;29041;42.266;23.110;2023-07-13T03:00:38;96095.41;;;18.18;100.00
43450;BME280;29041;42.266;23.110;2023-07-13T03:03:28;96089.38;;;18.29;100.00
43450;BME280;29041;42.266;23.110;2023-07-13T03:06:16;96087.81;;;18.28;100.00
43450;BME280;29041;42.266;23.110;2023-07-13T03:09:07;96092.63;;;18.38;100.00
43450;BME280;29041;42.266;23.110;2023-07-13T03:11:59;96087.81;;;18.28;100.00
43450;BME280;29041;42.266;23.110;2023-07-13T03:14:46;96091.00;;;18.33;100.00
43450;BME280;29041;42.266;23.110;2023-07-13T03:17:33;96095.47;;;18.22;100.00
43450;BME280;29041;42.266;23.110;2023-07-13T03:20:22;96087.81;;;18.28;100.00
43450;BME280;29041;42.266;23.110;2023-07-13T03:23:09;96099.66;;;18.39;100.00
43450;BME280;29041;42.266;23.110;2023-07-13T03:26:05;96094.06;;;18.32;100.00
43450;BME280;29041;42.266;23.110;2023-07-13T03:28:52;96095.19;;;18.27;100.00
43450;BME280;29041;42.266;23.110;2023-07-13T03:31:40;96113.09;;;18.32;100.00
43450;BME280;29041;42.266;23.110;2023-07-13T03:34:27;96106.56;;;18.36;100.00
43450;BME280;29041;42.266;23.110;2023-07-13T03:37:15;96104.66;;;18.37;100.00
43450;BME280;29041;42.266;23.110;2023-07-13T03:40:04;96113.03;;;18.28;100.00
43450;BME280;29041;42.266;23.110;2023-07-13T03:42:54;96121.06;;;18.21;100.00
43450;BME280;29041;42.266;23.110;2023-07-13T03:45:41;96098.94;;;18.19;100.00
43450;BME280;29041;42.266;23.110;2023-07-13T03:48:29;96119.97;;;18.26;100.00
43450;BME280;29041;42.266;23.110;2023-07-13T03:51:17;96101.03;;;18.29;100.00
43450;BME280;29041;42.266;23.110;2023-07-13T03:54:21;96106.50;;;18.33;100.00
43450;BME280;29041;42.266;23.110;2023-07-13T03:57:08;96105.47;;;18.41;100.00
43450;BME280;29041;42.266;23.110;2023-07-13T03:59:57;96100.09;;;18.45;100.00
43450;BME280;29041;42.266;23.110;2023-07-13T04:02:44;96101.72;;;18.49;100.00
43450;BME280;29041;42.266;23.110;2023-07-13T04:05:35;96103.69;;;18.49;100.00
43450;BME280;29041;42.266;23.110;2023-07-13T04:08:23;96107.81;;;18.66;100.00
43450;BME280;29041;42.266;23.110;2023-07-13T04:11:11;96104.88;;;18.78;100.00
43450;BME280;29041;42.266;23.110;2023-07-13T04:14:01;96106.25;;;18.92;100.00
43450;BME280;29041;42.266;23.110;2023-07-13T04:16:48;96091.91;;;18.95;99.98
43450;BME280;29041;42.266;23.110;2023-07-13T04:19:35;96110.31;;;19.36;98.36
43450;BME280;29041;42.266;23.110;2023-07-13T04:22:22;96108.28;;;19.29;98.48
43450;BME280;29041;42.266;23.110;2023-07-13T04:25:10;96112.16;;;19.28;98.60
43450;BME280;29041;42.266;23.110;2023-07-13T04:27:58;96105.56;;;19.63;96.54
43450;BME280;29041;42.266;23.110;2023-07-13T04:30:46;96112.09;;;19.55;96.53
43450;BME280;29041;42.266;23.110;2023-07-13T04:33:33;96110.06;;;19.48;96.93
43450;BME280;29041;42.266;23.110;2023-07-13T04:36:20;96103.75;;;19.40;98.09
43450;BME280;29041;42.266;23.110;2023-07-13T04:39:07;96090.09;;;19.37;96.64
43450;BME280;29041;42.266;23.110;2023-07-13T04:41:55;96089.72;;;19.38;96.79
43450;BME280;29041;42.266;23.110;2023-07-13T04:44:47;96112.44;;;19.49;96.60
43450;BME280;29041;42.266;23.110;2023-07-13T04:47:34;96100.31;;;19.43;96.61
43450;BME280;29041;42.266;23.110;2023-07-13T04:50:21;96106.94;;;20.21;93.17
43450;BME280;29041;42.266;23.110;2023-07-13T04:53:09;96114.75;;;19.85;95.02
43450;BME280;29041;42.266;23.110;2023-07-13T04:55:57;96123.78;;;19.89;95.23
43450;BME280;29041;42.266;23.110;2023-07-13T04:58:44;96113.50;;;20.13;93.05
43450;BME280;29041;42.266;23.110;2023-07-13T05:01:32;96120.72;;;20.39;92.36
43450;BME280;29041;42.266;23.110;2023-07-13T05:04:19;96126.94;;;19.95;94.17
43450;BME280;29041;42.266;23.110;2023-07-13T05:07:07;96124.47;;;20.20;94.43
43450;BME280;29041;42.266;23.110;2023-07-13T05:09:54;96126.78;;;20.70;91.14
43450;BME280;29041;42.266;23.110;2023-07-13T05:12:41;96130.06;;;20.38;92.74
43450;BME280;29041;42.266;23.110;2023-07-13T05:15:28;96120.59;;;20.73;91.70
43450;BME280;29041;42.266;23.110;2023-07-13T05:18:17;96119.78;;;21.39;89.19
43450;BME280;29041;42.266;23.110;2023-07-13T05:21:06;96126.16;;;21.62;85.74
43450;BME280;29041;42.266;23.110;2023-07-13T05:23:53;96124.84;;;21.37;87.16
43450;BME280;29041;42.266;23.110;2023-07-13T05:26:41;96116.09;;;22.16;84.85
43450;BME280;29041;42.266;23.110;2023-07-13T05:29:28;96107.84;;;21.84;84.46
43450;BME280;29041;42.266;23.110;2023-07-13T05:32:16;96118.03;;;21.87;84.17
43450;BME280;29041;42.266;23.110;2023-07-13T05:35:07;96115.72;;;22.11;84.03
43450;BME280;29041;42.266;23.110;2023-07-13T05:37:54;96114.50;;;21.90;85.55
43450;BME280;29041;42.266;23.110;2023-07-13T05:40:42;96118.44;;;22.07;83.52
43450;BME280;29041;42.266;23.110;2023-07-13T05:43:30;96132.50;;;22.31;82.17
43450;BME280;29041;42.266;23.110;2023-07-13T05:46:17;96130.19;;;22.29;81.31
43450;BME280;29041;42.266;23.110;2023-07-13T05:49:04;96138.81;;;22.53;79.71
43450;BME280;29041;42.266;23.110;2023-07-13T05:51:52;96141.09;;;23.27;78.23
43450;BME280;29041;42.266;23.110;2023-07-13T05:54:40;96142.69;;;22.95;78.59
43450;BME280;29041;42.266;23.110;2023-07-13T05:57:27;96146.09;;;23.43;76.53
43450;BME280;29041;42.266;23.110;2023-07-13T06:00:15;96157.28;;;23.85;74.38
43450;BME280;29041;42.266;23.110;2023-07-13T06:03:02;96157.44;;;23.52;75.82
43450;BME280;29041;42.266;23.110;2023-07-13T06:05:49;96160.81;;;23.82;74.48
43450;BME280;29041;42.266;23.110;2023-07-13T06:08:38;96165.19;;;23.68;77.00
43450;BME280;29041;42.266;23.110;2023-07-13T06:11:26;96159.56;;;24.01;73.38
43450;BME280;29041;42.266;23.110;2023-07-13T06:14:15;96153.34;;;23.97;74.83
43450;BME280;29041;42.266;23.110;2023-07-13T06:17:03;96151.22;;;24.22;73.49
43450;BME280;29041;42.266;23.110;2023-07-13T06:19:50;96149.78;;;24.56;72.09
43450;BME280;29041;42.266;23.110;2023-07-13T06:22:37;96151.38;;;24.53;71.01
43450;BME280;29041;42.266;23.110;2023-07-13T06:25:25;96155.38;;;24.94;69.88
43450;BME280;29041;42.266;23.110;2023-07-13T06:28:13;96153.91;;;24.30;72.37
43450;BME280;29041;42.266;23.110;2023-07-13T06:31:00;96154.25;;;24.88;69.73
43450;BME280;29041;42.266;23.110;2023-07-13T06:33:48;96140.19;;;24.82;70.96
43450;BME280;29041;42.266;23.110;2023-07-13T06:36:35;96155.06;;;24.85;68.76
43450;BME280;29041;42.266;23.110;2023-07-13T06:39:24;96154.88;;;25.03;68.59
43450;BME280;29041;42.266;23.110;2023-07-13T06:42:12;96146.06;;;25.23;66.97
43450;BME280;29041;42.266;23.110;2023-07-13T06:45:00;96132.94;;;25.72;65.13
43450;BME280;29041;42.266;23.110;2023-07-13T06:47:47;96129.13;;;25.93;62.54
43450;BME280;29041;42.266;23.110;2023-07-13T06:50:34;96122.25;;;25.47;64.87
43450;BME280;29041;42.266;23.110;2023-07-13T06:53:22;96115.31;;;26.28;63.35
43450;BME280;29041;42.266;23.110;2023-07-13T06:56:09;96106.84;;;26.63;60.65
43450;BME280;29041;42.266;23.110;2023-07-13T06:58:58;96104.41;;;26.68;59.89
43450;BME280;29041;42.266;23.110;2023-07-13T07:01:45;96098.63;;;26.39;60.96
43450;BME280;29041;42.266;23.110;2023-07-13T07:04:32;96100.47;;;26.93;60.78
43450;BME280;29041;42.266;23.110;2023-07-13T07:07:19;96087.53;;;26.66;60.00
43450;BME280;29041;42.266;23.110;2023-07-13T07:10:08;96087.78;;;26.75;59.97
43450;BME280;29041;42.266;23.110;2023-07-13T07:12:55;96103.81;;;27.24;57.42
43450;BME280;29041;42.266;23.110;2023-07-13T07:15:43;96103.44;;;27.02;57.47
43450;BME280;29041;42.266;23.110;2023-07-13T07:18:30;96100.56;;;27.50;56.36
43450;BME280;29041;42.266;23.110;2023-07-13T07:21:17;96097.19;;;27.42;56.99
43450;BME280;29041;42.266;23.110;2023-07-13T07:24:05;96094.13;;;27.77;54.92
43450;BME280;29041;42.266;23.110;2023-07-13T07:26:53;96086.16;;;27.62;54.23
43450;BME280;29041;42.266;23.110;2023-07-13T07:29:40;96085.28;;;27.65;55.41
43450;BME280;29041;42.266;23.110;2023-07-13T07:32:30;96078.31;;;28.47;54.65
43450;BME280;29041;42.266;23.110;2023-07-13T07:35:18;96082.53;;;28.85;52.83
43450;BME280;29041;42.266;23.110;2023-07-13T07:38:05;96080.03;;;28.41;53.18
43450;BME280;29041;42.266;23.110;2023-07-13T07:40:54;96080.75;;;28.28;52.94
43450;BME280;29041;42.266;23.110;2023-07-13T07:43:42;96075.63;;;28.27;53.20
43450;BME280;29041;42.266;23.110;2023-07-13T07:46:29;96076.41;;;28.11;52.74
43450;BME280;29041;42.266;23.110;2023-07-13T07:49:18;96074.94;;;28.06;52.44
43450;BME280;29041;42.266;23.110;2023-07-13T07:52:06;96068.91;;;28.28;50.69
43450;BME280;29041;42.266;23.110;2023-07-13T07:54:54;96071.34;;;29.18;49.20
43450;BME280;29041;42.266;23.110;2023-07-13T07:57:41;96064.84;;;29.24;49.01
43450;BME280;29041;42.266;23.110;2023-07-13T08:00:28;96066.31;;;29.84;47.20
43450;BME280;29041;42.266;23.110;2023-07-13T08:03:17;96062.78;;;29.97;46.81
43450;BME280;29041;42.266;23.110;2023-07-13T08:06:06;96057.88;;;31.10;44.73
43450;BME280;29041;42.266;23.110;2023-07-13T08:08:53;96053.09;;;33.57;38.85
43450;BME280;29041;42.266;23.110;2023-07-13T08:11:40;96044.88;;;35.03;35.65
43450;BME280;29041;42.266;23.110;2023-07-13T08:14:27;96043.25;;;36.36;33.39
43450;BME280;29041;42.266;23.110;2023-07-13T08:17:14;96045.97;;;35.95;35.02
43450;BME280;29041;42.266;23.110;2023-07-13T08:20:02;96034.25;;;38.05;31.67
43450;BME280;29041;42.266;23.110;2023-07-13T08:22:51;96039.44;;;37.49;31.57
43450;BME280;29041;42.266;23.110;2023-07-13T08:25:38;96030.78;;;38.71;29.03
43450;BME280;29041;42.266;23.110;2023-07-13T08:28:25;96046.94;;;34.54;36.21
43450;BME280;29041;42.266;23.110;2023-07-13T08:31:12;96042.16;;;34.54;37.61
43450;BME280;29041;42.266;23.110;2023-07-13T08:33:59;96028.47;;;36.51;33.87
43450;BME280;29041;42.266;23.110;2023-07-13T08:36:46;96030.13;;;36.07;34.65
43450;BME280;29041;42.266;23.110;2023-07-13T08:39:35;96025.38;;;36.13;34.00
43450;BME280;29041;42.266;23.110;2023-07-13T08:42:33;96022.47;;;37.96;31.99
43450;BME280;29041;42.266;23.110;2023-07-13T08:45:25;96007.94;;;37.59;32.73
43450;BME280;29041;42.266;23.110;2023-07-13T08:48:21;96009.47;;;35.69;36.35
43450;BME280;29041;42.266;23.110;2023-07-13T08:51:23;96012.47;;;36.78;33.91
43450;BME280;29041;42.266;23.110;2023-07-13T08:54:21;96006.84;;;37.19;34.91
43450;BME280;29041;42.266;23.110;2023-07-13T08:57:13;96004.50;;;37.38;33.02
43450;BME280;29041;42.266;23.110;2023-07-13T09:00:01;96011.25;;;35.21;37.01
43450;BME280;29041;42.266;23.110;2023-07-13T09:02:55;95995.88;;;37.80;33.99
43450;BME280;29041;42.266;23.110;2023-07-13T09:05:43;95991.22;;;36.24;35.77
43450;BME280;29041;42.266;23.110;2023-07-13T09:08:46;95993.22;;;36.59;34.92
43450;BME280;29041;42.266;23.110;2023-07-13T09:11:45;95988.94;;;35.87;38.15
43450;BME280;29041;42.266;23.110;2023-07-13T09:14:41;95974.66;;;36.82;35.91
43450;BME280;29041;42.266;23.110;2023-07-13T09:17:33;95970.78;;;37.59;34.34
43450;BME280;29041;42.266;23.110;2023-07-13T09:20:26;95965.53;;;37.72;35.09
43450;BME280;29041;42.266;23.110;2023-07-13T09:23:18;95964.00;;;37.39;33.97
43450;BME280;29041;42.266;23.110;2023-07-13T09:26:12;95959.84;;;38.53;32.08
43450;BME280;29041;42.266;23.110;2023-07-13T09:29:20;95951.78;;;37.74;33.42
43450;BME280;29041;42.266;23.110;2023-07-13T09:32:12;95956.22;;;37.87;32.48
43450;BME280;29041;42.266;23.110;2023-07-13T09:35:01;95954.38;;;38.27;32.24
43450;BME280;29041;42.266;23.110;2023-07-13T09:38:03;95945.81;;;37.23;33.67
43450;BME280;29041;42.266;23.110;2023-07-13T09:41:00;95948.16;;;37.62;33.26
43450;BME280;29041;42.266;23.110;2023-07-13T09:44:17;95941.09;;;36.82;34.38
43450;BME280;29041;42.266;23.110;2023-07-13T09:47:16;95963.06;;;36.90;34.01
43450;BME280;29041;42.266;23.110;2023-07-13T09:50:09;95968.13;;;35.88;34.26
43450;BME280;29041;42.266;23.110;2023-07-13T09:52:56;95948.91;;;36.31;32.90
43450;BME280;29041;42.266;23.110;2023-07-13T09:55:46;95944.75;;;34.90;35.89
43450;BME280;29041;42.266;23.110;2023-07-13T09:58:35;95944.31;;;34.28;36.70
43450;BME280;29041;42.266;23.110;2023-07-13T10:01:32;95946.97;;;35.01;35.71
43450;BME280;29041;42.266;23.110;2023-07-13T10:04:28;95952.25;;;34.44;36.30
43450;BME280;29041;42.266;23.110;2023-07-13T10:07:15;95953.75;;;34.30;35.21
43450;BME280;29041;42.266;23.110;2023-07-13T10:10:13;95951.16;;;34.03;34.64
43450;BME280;29041;42.266;23.110;2023-07-13T10:13:01;95948.03;;;34.49;34.44
43450;BME280;29041;42.266;23.110;2023-07-13T10:15:50;95935.78;;;34.71;33.20
43450;BME280;29041;42.266;23.110;2023-07-13T10:18:44;95929.44;;;34.70;34.00
43450;BME280;29041;42.266;23.110;2023-07-13T10:21:39;95930.50;;;34.88;33.50
43450;BME280;29041;42.266;23.110;2023-07-13T10:24:31;95928.47;;;35.63;32.52
43450;BME280;29041;42.266;23.110;2023-07-13T10:27:23;95923.56;;;35.28;31.43
43450;BME280;29041;42.266;23.110;2023-07-13T10:30:19;95917.03;;;35.82;31.62
43450;BME280;29041;42.266;23.110;2023-07-13T10:33:10;95914.44;;;35.78;30.53
43450;BME280;29041;42.266;23.110;2023-07-13T10:35:59;95916.47;;;35.78;30.78
43450;BME280;29041;42.266;23.110;2023-07-13T10:38:53;95905.63;;;35.85;30.83
43450;BME280;29041;42.266;23.110;2023-07-13T10:41:42;95904.69;;;35.38;30.51
43450;BME280;29041;42.266;23.110;2023-07-13T10:44:32;95898.47;;;35.43;30.12
43450;BME280;29041;42.266;23.110;2023-07-13T10:47:20;95895.53;;;35.52;29.69
43450;BME280;29041;42.266;23.110;2023-07-13T10:50:15;95882.59;;;35.70;29.46
43450;BME280;29041;42.266;23.110;2023-07-13T10:53:18;95884.00;;;36.42;28.11
43450;BME280;29041;42.266;23.110;2023-07-13T10:56:20;95878.72;;;35.47;27.06
43450;BME280;29041;42.266;23.110;2023-07-13T10:59:12;95880.38;;;36.15;29.51
43450;BME280;29041;42.266;23.110;2023-07-13T11:02:11;95887.44;;;35.90;27.44
43450;BME280;29041;42.266;23.110;2023-07-13T11:05:17;95879.81;;;35.70;26.86
43450;BME280;29041;42.266;23.110;2023-07-13T11:08:16;95879.41;;;35.98;28.08
43450;BME280;29041;42.266;23.110;2023-07-13T11:11:34;95883.59;;;35.87;27.87
43450;BME280;29041;42.266;23.110;2023-07-13T11:14:35;95870.59;;;35.84;29.09
43450;BME280;29041;42.266;23.110;2023-07-13T11:17:24;95865.22;;;36.01;29.61
43450;BME280;29041;42.266;23.110;2023-07-13T11:20:31;95860.94;;;36.00;29.30
43450;BME280;29041;42.266;23.110;2023-07-13T11:23:30;95864.22;;;36.25;29.31
43450;BME280;29041;42.266;23.110;2023-07-13T11:26:42;95858.25;;;36.12;30.56
43450;BME280;29041;42.266;23.110;2023-07-13T11:29:36;95856.13;;;36.27;29.69
43450;BME280;29041;42.266;23.110;2023-07-13T11:32:30;95855.78;;;36.40;29.29
43450;BME280;29041;42.266;23.110;2023-07-13T11:35:22;95853.63;;;36.29;28.17
43450;BME280;29041;42.266;23.110;2023-07-13T11:38:15;95848.19;;;36.20;24.55
43450;BME280;29041;42.266;23.110;2023-07-13T11:41:05;95830.53;;;36.08;29.44
43450;BME280;29041;42.266;23.110;2023-07-13T11:43:55;95829.13;;;35.98;28.79
43450;BME280;29041;42.266;23.110;2023-07-13T11:46:47;95835.06;;;35.85;26.43
43450;BME280;29041;42.266;23.110;2023-07-13T11:49:44;95820.81;;;35.83;24.96
43450;BME280;29041;42.266;23.110;2023-07-13T11:52:35;95819.63;;;35.89;23.92
43450;BME280;29041;42.266;23.110;2023-07-13T11:55:23;95808.88;;;35.82;24.29
43450;BME280;29041;42.266;23.110;2023-07-13T11:58:18;95808.75;;;35.50;26.76
43450;BME280;29041;42.266;23.110;2023-07-13T12:01:18;95808.59;;;35.39;27.06
43450;BME280;29041;42.266;23.110;2023-07-13T12:04:10;95798.88;;;36.17;26.99
43450;BME280;29041;42.266;23.110;2023-07-13T12:07:14;95789.84;;;36.54;25.95
43450;BME280;29041;42.266;23.110;2023-07-13T12:10:03;95789.16;;;36.39;24.25
43450;BME280;29041;42.266;23.110;2023-07-13T12:12:53;95789.88;;;36.60;25.30
43450;BME280;29041;42.266;23.110;2023-07-13T12:15:42;95783.34;;;35.89;24.76
43450;BME280;29041;42.266;23.110;2023-07-13T12:18:32;95785.34;;;35.89;24.56
43450;BME280;29041;42.266;23.110;2023-07-13T12:21:23;95779.28;;;35.91;24.28
43450;BME280;29041;42.266;23.110;2023-07-13T12:24:14;95787.03;;;36.28;25.11
43450;BME280;29041;42.266;23.110;2023-07-13T12:27:03;95777.44;;;36.61;24.50
43450;BME280;29041;42.266;23.110;2023-07-13T12:29:53;95774.28;;;36.47;22.03
43450;BME280;29041;42.266;23.110;2023-07-13T12:32:55;95778.66;;;36.28;22.52
43450;BME280;29041;42.266;23.110;2023-07-13T12:35:47;95775.09;;;36.54;23.87
43450;BME280;29041;42.266;23.110;2023-07-13T12:38:35;95749.63;;;35.72;25.33
43450;BME280;29041;42.266;23.110;2023-07-13T12:41:22;95775.53;;;36.20;26.62
43450;BME280;29041;42.266;23.110;2023-07-13T12:44:11;95766.94;;;36.24;26.62
43450;BME280;29041;42.266;23.110;2023-07-13T12:47:05;95782.59;;;36.15;26.46
43450;BME280;29041;42.266;23.110;2023-07-13T12:49:59;95764.88;;;36.18;26.53
43450;BME280;29041;42.266;23.110;2023-07-13T12:52:53;95758.59;;;36.29;27.74
43450;BME280;29041;42.266;23.110;2023-07-13T12:55:42;95756.56;;;36.30;26.77
43450;BME280;29041;42.266;23.110;2023-07-13T12:58:32;95747.09;;;36.21;27.42
43450;BME280;29041;42.266;23.110;2023-07-13T13:01:26;95742.38;;;36.07;26.71
43450;BME280;29041;42.266;23.110;2023-07-13T13:04:14;95746.00;;;36.40;27.34
43450;BME280;29041;42.266;23.110;2023-07-13T13:07:02;95746.00;;;36.40;27.17
43450;BME280;29041;42.266;23.110;2023-07-13T13:09:52;95734.16;;;36.24;27.97
43450;BME280;29041;42.266;23.110;2023-07-13T13:12:40;95739.97;;;36.20;28.57
43450;BME280;29041;42.266;23.110;2023-07-13T13:15:28;95729.59;;;36.27;29.65
43450;BME280;29041;42.266;23.110;2023-07-13T13:18:17;95711.91;;;35.83;30.51
43450;BME280;29041;42.266;23.110;2023-07-13T13:21:04;95731.13;;;36.28;30.79
43450;BME280;29041;42.266;23.110;2023-07-13T13:23:52;95729.28;;;36.45;30.15
43450;BME280;29041;42.266;23.110;2023-07-13T13:26:41;95727.16;;;36.08;29.56
43450;BME280;29041;42.266;23.110;2023-07-13T13:29:31;95729.88;;;36.29;29.97
43450;BME280;29041;42.266;23.110;2023-07-13T13:32:19;95728.03;;;36.46;29.91
43450;BME280;29041;42.266;23.110;2023-07-13T13:35:12;95721.56;;;36.34;29.26
43450;BME280;29041;42.266;23.110;2023-07-13T13:37:59;95719.88;;;36.16;28.54
43450;BME280;29041;42.266;23.110;2023-07-13T13:40:47;95710.94;;;36.12;28.48
43450;BME280;29041;42.266;23.110;2023-07-13T13:43:36;95708.13;;;36.07;28.28
43450;BME280;29041;42.266;23.110;2023-07-13T13:46:24;95712.53;;;35.93;28.24
43450;BME280;29041;42.266;23.110;2023-07-13T13:49:16;95702.81;;;35.88;28.08
43450;BME280;29041;42.266;23.110;2023-07-13T13:52:08;95699.13;;;35.97;28.48
43450;BME280;29041;42.266;23.110;2023-07-13T13:54:56;95705.03;;;36.04;28.01
43450;BME280;29041;42.266;23.110;2023-07-13T13:57:43;95706.06;;;36.07;27.86
43450;BME280;29041;42.266;23.110;2023-07-13T14:00:32;95689.66;;;36.20;27.37
43450;BME280;29041;42.266;23.110;2023-07-13T14:03:19;95698.44;;;36.34;27.52
43450;BME280;29041;42.266;23.110;2023-07-13T14:06:09;95690.91;;;36.14;27.50
43450;BME280;29041;42.266;23.110;2023-07-13T14:08:59;95697.44;;;35.84;27.38
43450;BME280;29041;42.266;23.110;2023-07-13T14:11:48;95686.75;;;36.03;27.82
43450;BME280;29041;42.266;23.110;2023-07-13T14:14:37;95699.06;;;36.17;27.99
43450;BME280;29041;42.266;23.110;2023-07-13T14:17:27;95696.50;;;36.14;27.62
43450;BME280;29041;42.266;23.110;2023-07-13T14:20:15;95691.16;;;36.16;28.02
43450;BME280;29041;42.266;23.110;2023-07-13T14:23:02;95680.19;;;36.07;28.32
43450;BME280;29041;42.266;23.110;2023-07-13T14:25:49;95684.53;;;36.13;28.38
43450;BME280;29041;42.266;23.110;2023-07-13T14:28:38;95674.38;;;36.10;28.39
43450;BME280;29041;42.266;23.110;2023-07-13T14:31:28;95678.19;;;36.13;28.46
43450;BME280;29041;42.266;23.110;2023-07-13T14:34:17;95678.31;;;35.98;29.50
43450;BME280;29041;42.266;23.110;2023-07-13T14:37:05;95683.56;;;35.90;29.44
43450;BME280;29041;42.266;23.110;2023-07-13T14:39:52;95680.06;;;35.95;30.26
43450;BME280;29041;42.266;23.110;2023-07-13T14:42:40;95678.75;;;35.91;29.23
43450;BME280;29041;42.266;23.110;2023-07-13T14:45:28;95673.84;;;35.85;29.35
43450;BME280;29041;42.266;23.110;2023-07-13T14:48:19;95681.34;;;35.73;30.02